createdAt,value
2022-08-04T00:01:26.891Z,99807.03
2022-08-04T00:02:48.220Z,99800.97
2022-08-04T00:03:36.510Z,99803.16
2022-08-04T00:04:23.446Z,99795.13
2022-08-04T00:05:13.750Z,99799.81
2022-08-04T00:05:57.677Z,99792.13
2022-08-04T00:08:16.258Z,99792.78
2022-08-04T00:09:03.787Z,99804.84
2022-08-04T00:09:56.303Z,99794.78
2022-08-04T00:10:45.174Z,99796.81
2022-08-04T00:11:38.241Z,99791.47
2022-08-04T00:12:31.244Z,99790.28
2022-08-04T00:13:28.542Z,99793.97
2022-08-04T00:14:20.894Z,99798.84
2022-08-04T00:15:17.913Z,99791.63
2022-08-04T00:16:11.076Z,99796.97
2022-08-04T00:17:05.626Z,99799.81
2022-08-04T00:17:58.751Z,99795.47
2022-08-04T00:19:01.208Z,99800.50
2022-08-04T00:24:10.310Z,99794.97
2022-08-04T00:25:08.984Z,99798.84
2022-08-04T00:27:23.152Z,99792.81
2022-08-04T00:28:12.458Z,99795.78
2022-08-04T00:28:57.572Z,99798.66
2022-08-04T00:29:43.575Z,99796.16
2022-08-04T00:30:30.004Z,99799.66
2022-08-04T00:31:17.119Z,99791.78
2022-08-04T00:33:03.351Z,99792.28
2022-08-04T00:33:52.675Z,99796.81
2022-08-04T00:34:38.632Z,99795.28
2022-08-04T00:35:28.258Z,99789.78
2022-08-04T00:36:15.364Z,99797.16
2022-08-04T00:37:07.330Z,99788.13
2022-08-04T00:40:22.278Z,99783.75
2022-08-04T00:41:06.544Z,99788.94
2022-08-04T00:42:10.933Z,99793.81
2022-08-04T00:42:59.630Z,99790.97
2022-08-04T00:43:52.176Z,99790.09
2022-08-04T00:44:52.563Z,99790.25
2022-08-04T00:46:15.852Z,99789.44
2022-08-04T00:47:11.102Z,99783.91
2022-08-04T00:48:08.948Z,99784.75
2022-08-04T00:49:12.142Z,99784.75
2022-08-04T00:50:44.594Z,99785.28
2022-08-04T00:51:38.048Z,99783.41
2022-08-04T00:52:32.223Z,99784.09
2022-08-04T00:53:49.833Z,99778.41
2022-08-04T00:54:37.541Z,99783.09
2022-08-04T00:55:30.286Z,99773.69
2022-08-04T00:56:12.090Z,99776.22
2022-08-04T00:56:53.613Z,99780.25
2022-08-04T00:57:48.981Z,99780.72
2022-08-04T00:58:33.280Z,99781.06
2022-08-04T00:59:14.662Z,99776.03
2022-08-04T01:00:05.234Z,99774.34
2022-08-04T01:00:58.208Z,99772.00
2022-08-04T01:01:52.343Z,99768.81
2022-08-04T01:02:43.733Z,99768.66
2022-08-04T01:03:31.892Z,99771.19
2022-08-04T01:04:22.059Z,99765.97
2022-08-04T01:05:22.034Z,99768.50
2022-08-04T01:06:18.834Z,99769.31
2022-08-04T01:07:09.742Z,99772.53
2022-08-04T01:08:32.913Z,99759.97
2022-08-04T01:09:32.376Z,99771.00
2022-08-04T01:10:34.512Z,99763.97
2022-08-04T01:11:20.984Z,99762.97
2022-08-04T01:12:23.312Z,99761.47
2022-08-04T01:13:21.222Z,99770.19
2022-08-04T01:14:08.334Z,99764.66
2022-08-04T01:18:50.203Z,99757.94
2022-08-04T01:19:59.189Z,99762.81
2022-08-04T01:21:01.513Z,99755.28
2022-08-04T01:21:57.209Z,99762.97
2022-08-04T01:23:07.969Z,99760.13
2022-08-04T01:24:04.143Z,99759.97
2022-08-04T01:25:14.574Z,99759.81
2022-08-04T01:26:43.712Z,99760.78
2022-08-04T01:29:18.548Z,99762.66
2022-08-04T01:31:12.943Z,99763.47
2022-08-04T01:32:16.238Z,99762.66
2022-08-04T01:33:23.040Z,99759.97
2022-08-04T01:35:15.441Z,99756.97
2022-08-04T01:36:10.030Z,99758.81
2022-08-04T01:36:54.958Z,99758.81
2022-08-04T01:37:47.597Z,99754.94
2022-08-04T01:38:38.701Z,99753.25
2022-08-04T01:39:31.716Z,99751.28
2022-08-04T01:40:25.655Z,99747.56
2022-08-04T01:41:32.441Z,99747.22
2022-08-04T01:42:37.138Z,99750.94
2022-08-04T01:43:28.415Z,99743.06
2022-08-04T01:44:15.477Z,99743.91
2022-08-04T01:45:03.275Z,99745.91
2022-08-04T01:45:54.421Z,99743.91
2022-08-04T01:46:46.762Z,99748.25
2022-08-04T01:47:36.040Z,99743.22
2022-08-04T01:48:34.934Z,99741.53
2022-08-04T01:49:31.386Z,99742.03
2022-08-04T01:51:52.839Z,99744.06
2022-08-04T01:52:39.422Z,99745.56
2022-08-04T01:53:30.968Z,99744.72
2022-08-04T01:54:19.105Z,99740.06
2022-08-04T01:55:11.234Z,99741.88
2022-08-04T01:56:07.249Z,99746.41
2022-08-04T01:57:37.591Z,99738.22
2022-08-04T01:59:11.623Z,99737.53
2022-08-04T01:59:59.683Z,99739.19
2022-08-04T02:00:49.048Z,99739.84
2022-08-04T02:01:38.031Z,99738.19
2022-08-04T02:02:27.123Z,99739.84
2022-08-04T02:03:15.433Z,99735.19
2022-08-04T02:05:06.757Z,99726.47
2022-08-04T02:06:03.913Z,99723.63
2022-08-04T02:07:13.977Z,99731.81
2022-08-04T02:08:29.058Z,99717.75
2022-08-04T02:09:16.802Z,99725.47
2022-08-04T02:10:09.359Z,99719.63
2022-08-04T02:10:53.321Z,99722.28
2022-08-04T02:11:43.058Z,99725.63
2022-08-04T02:12:41.640Z,99720.78
2022-08-04T02:13:31.194Z,99719.28
2022-08-04T02:14:18.072Z,99719.13
2022-08-04T02:16:36.638Z,99716.28
2022-08-04T02:17:38.445Z,99706.38
2022-08-04T02:18:33.041Z,99710.59
2022-08-04T02:20:54.012Z,99703.38
2022-08-04T02:21:58.379Z,99701.38
2022-08-04T02:22:55.497Z,99702.56
2022-08-04T02:27:19.361Z,99695.34
2022-08-04T02:28:08.915Z,99700.53
2022-08-04T02:29:22.657Z,99711.09
2022-08-04T02:30:08.969Z,99705.03
2022-08-04T02:31:17.131Z,99698.84
2022-08-04T02:33:16.216Z,99694.31
2022-08-04T02:34:34.731Z,99689.31
2022-08-04T02:35:34.667Z,99691.63
2022-08-04T02:36:31.903Z,99694.16
2022-08-04T02:42:44.328Z,99689.16
2022-08-04T02:43:51.981Z,99692.34
2022-08-04T02:46:55.525Z,99683.59
2022-08-04T02:48:29.107Z,99682.78
2022-08-04T02:48:51.046Z,99682.59
2022-08-04T02:49:37.468Z,99684.47
2022-08-04T02:50:32.003Z,99678.59
2022-08-04T02:51:19.496Z,99682.44
2022-08-04T02:52:09.643Z,99684.28
2022-08-04T02:53:00.679Z,99681.78
2022-08-04T02:53:59.477Z,99680.94
2022-08-04T02:54:56.655Z,99675.56
2022-08-04T02:56:16.004Z,99680.09
2022-08-04T02:57:01.048Z,99673.91
2022-08-04T02:57:47.907Z,99674.25
2022-08-04T02:58:33.581Z,99674.41
2022-08-04T02:59:18.407Z,99676.91
2022-08-04T03:00:06.226Z,99677.75
2022-08-04T03:00:51.857Z,99672.88
2022-08-04T03:01:57.645Z,99672.06
2022-08-04T03:03:09.532Z,99672.56
2022-08-04T03:03:56.952Z,99667.38
2022-08-04T03:04:44.481Z,99669.22
2022-08-04T03:05:31.198Z,99668.22
2022-08-04T03:08:06.086Z,99668.22
2022-08-04T03:08:53.256Z,99667.91
2022-08-04T03:09:35.442Z,99668.88
2022-08-04T03:10:30.113Z,99667.38
2022-08-04T03:11:11.700Z,99668.56
2022-08-04T03:12:00.803Z,99665.06
2022-08-04T03:12:50.803Z,99668.72
2022-08-04T03:15:13.930Z,99663.03
2022-08-04T03:16:20.677Z,99666.88
2022-08-04T03:17:21.548Z,99662.53
2022-08-04T03:18:34.805Z,99664.84
2022-08-04T03:19:44.116Z,99660.34
2022-08-04T03:20:33.416Z,99659.69
2022-08-04T03:21:36.826Z,99654.50
2022-08-04T03:24:20.224Z,99662.16
2022-08-04T03:25:09.271Z,99659.00
2022-08-04T03:28:25.100Z,99655.16
2022-08-04T03:29:08.380Z,99654.13
2022-08-04T03:30:15.127Z,99656.16
2022-08-04T03:31:35.251Z,99655.50
2022-08-04T03:32:29.099Z,99658.00
2022-08-04T03:33:14.428Z,99658.16
2022-08-04T03:33:56.856Z,99659.16
2022-08-04T03:34:50.282Z,99654.66
2022-08-04T03:35:42.468Z,99648.44
2022-08-04T03:36:30.271Z,99656.50
2022-08-04T03:37:28.150Z,99654.50
2022-08-04T03:38:44.352Z,99648.13
2022-08-04T03:39:47.980Z,99648.44
2022-08-04T03:40:37.966Z,99649.81
2022-08-04T03:41:51.823Z,99655.81
2022-08-04T03:42:32.977Z,99652.97
2022-08-04T03:43:57.722Z,99662.88
2022-08-04T03:45:40.416Z,99654.50
2022-08-04T03:46:22.108Z,99646.09
2022-08-04T03:47:10.038Z,99650.47
2022-08-04T03:48:05.732Z,99654.66
2022-08-04T03:48:40.758Z,99646.81
2022-08-04T03:49:21.810Z,99649.16
2022-08-04T03:50:09.973Z,99640.41
2022-08-04T03:51:02.238Z,99653.47
2022-08-04T03:51:42.859Z,99644.44
2022-08-04T03:52:47.229Z,99652.31
2022-08-04T03:53:32.155Z,99648.94
2022-08-04T03:54:25.596Z,99643.09
2022-08-04T03:55:03.960Z,99646.28
2022-08-04T03:55:43.800Z,99646.47
2022-08-04T03:56:25.742Z,99647.63
2022-08-04T03:57:16.796Z,99644.94
2022-08-04T03:58:19.652Z,99652.00
2022-08-04T03:59:18.868Z,99645.94
2022-08-04T04:00:13.023Z,99642.44
2022-08-04T04:00:49.515Z,99638.94
2022-08-04T04:01:57.803Z,99641.13
2022-08-04T04:02:40.003Z,99640.75
2022-08-04T04:03:28.413Z,99645.78
2022-08-04T04:04:03.613Z,99639.75
2022-08-04T04:05:03.387Z,99639.09
2022-08-04T04:05:59.830Z,99640.59
2022-08-04T04:06:53.813Z,99640.59
2022-08-04T04:07:35.768Z,99644.28
2022-08-04T04:08:29.222Z,99646.78
2022-08-04T04:09:16.323Z,99637.72
2022-08-04T04:10:14.563Z,99646.63
2022-08-04T04:10:51.188Z,99640.91
2022-08-04T04:11:57.334Z,99644.63
2022-08-04T04:12:34.037Z,99647.47
2022-08-04T04:13:32.428Z,99647.13
2022-08-04T04:14:26.793Z,99645.44
2022-08-04T04:15:23.769Z,99643.44
2022-08-04T04:16:18.125Z,99646.28
2022-08-04T04:17:20.430Z,99642.59
2022-08-04T04:18:08.441Z,99641.78
2022-08-04T04:18:57.017Z,99646.09
2022-08-04T04:19:32.431Z,99638.06
2022-08-04T04:20:13.740Z,99643.97
2022-08-04T04:21:07.766Z,99646.47
2022-08-04T04:22:01.893Z,99645.44
2022-08-04T04:22:53.360Z,99637.75
2022-08-04T04:23:45.831Z,99638.59
2022-08-04T04:24:39.759Z,99636.75
2022-08-04T04:25:32.862Z,99638.06
2022-08-04T04:26:14.313Z,99644.63
2022-08-04T04:27:07.910Z,99641.13
2022-08-04T04:27:47.083Z,99633.91
2022-08-04T04:28:45.835Z,99633.25
2022-08-04T04:29:42.696Z,99643.97
2022-08-04T04:30:25.230Z,99641.44
2022-08-04T04:31:08.989Z,99642.44
2022-08-04T04:32:01.425Z,99640.75
2022-08-04T04:32:36.666Z,99641.44
2022-08-04T04:33:14.697Z,99644.78
2022-08-04T04:33:56.029Z,99639.44
2022-08-04T04:34:35.029Z,99635.75
2022-08-04T04:35:10.665Z,99640.41
2022-08-04T04:35:52.174Z,99641.63
2022-08-04T04:36:32.771Z,99646.63
2022-08-04T04:37:11.507Z,99641.28
2022-08-04T04:38:07.655Z,99640.41
2022-08-04T04:38:47.634Z,99645.78
2022-08-04T04:39:29.130Z,99641.78
2022-08-04T04:40:06.947Z,99637.41
2022-08-04T04:41:00.602Z,99641.09
2022-08-04T04:41:51.362Z,99637.41
2022-08-04T04:42:31.565Z,99634.25
2022-08-04T04:43:06.833Z,99631.91
2022-08-04T04:43:52.607Z,99636.41
2022-08-04T04:44:45.847Z,99637.91
2022-08-04T04:45:34.053Z,99637.91
2022-08-04T04:46:10.253Z,99640.09
2022-08-04T04:47:03.037Z,99641.63
2022-08-04T04:48:08.991Z,99637.75
2022-08-04T04:48:43.418Z,99637.91
2022-08-04T04:49:31.597Z,99634.41
2022-08-04T04:50:07.049Z,99637.06
2022-08-04T04:50:44.984Z,99638.06
2022-08-04T04:51:23.831Z,99640.09
2022-08-04T04:52:11.851Z,99638.59
2022-08-04T04:53:02.298Z,99640.09
2022-08-04T04:54:00.165Z,99646.09
2022-08-04T04:54:35.340Z,99639.41
2022-08-04T04:55:25.046Z,99641.94
2022-08-04T04:56:22.215Z,99635.91
2022-08-04T04:57:08.231Z,99641.78
2022-08-04T04:57:53.895Z,99641.59
2022-08-04T04:58:37.768Z,99641.44
2022-08-04T04:59:19.648Z,99641.44
2022-08-04T04:59:57.910Z,99646.47
2022-08-04T05:00:48.334Z,99644.13
2022-08-04T05:01:29.071Z,99646.09
2022-08-04T05:02:26.542Z,99640.91
2022-08-04T05:03:04.921Z,99651.47
2022-08-04T05:04:06.903Z,99642.59
2022-08-04T05:04:57.223Z,99648.63
2022-08-04T05:05:32.440Z,99645.78
2022-08-04T05:06:07.532Z,99643.25
2022-08-04T05:06:45.820Z,99642.75
2022-08-04T05:07:48.187Z,99641.59
2022-08-04T05:08:44.706Z,99639.75
2022-08-04T05:09:30.329Z,99639.09
2022-08-04T05:10:27.080Z,99643.59
2022-08-04T05:11:11.453Z,99641.13
2022-08-04T05:11:46.737Z,99649.97
2022-08-04T05:13:20.421Z,99643.09
2022-08-04T05:14:37.449Z,99642.28
2022-08-04T05:14:41.760Z,99641.63
2022-08-04T05:15:22.619Z,99638.94
2022-08-04T05:16:04.893Z,99640.41
2022-08-04T05:16:44.659Z,99641.44
2022-08-04T05:17:20.800Z,99640.59
2022-08-04T05:17:58.058Z,99645.78
2022-08-04T05:18:38.755Z,99642.28
2022-08-04T05:19:29.242Z,99642.44
2022-08-04T05:20:07.347Z,99639.44
2022-08-04T05:20:44.789Z,99648.13
2022-08-04T05:21:20.453Z,99638.06
2022-08-04T05:22:02.257Z,99639.59
2022-08-04T05:22:42.185Z,99638.78
2022-08-04T05:23:19.801Z,99631.72
2022-08-04T05:23:58.268Z,99642.28
2022-08-04T05:24:35.633Z,99644.94
2022-08-04T05:25:32.045Z,99637.75
2022-08-04T05:26:18.507Z,99640.75
2022-08-04T05:27:03.768Z,99652.66
2022-08-04T05:27:41.784Z,99642.09
2022-08-04T05:28:18.791Z,99649.47
2022-08-04T05:28:56.138Z,99643.09
2022-08-04T05:29:33.828Z,99640.25
2022-08-04T05:30:12.649Z,99644.47
2022-08-04T05:31:05.420Z,99645.28
2022-08-04T05:31:45.297Z,99642.59
2022-08-04T05:32:22.609Z,99643.59
2022-08-04T05:33:02.854Z,99647.13
2022-08-04T05:34:36.635Z,99644.78
2022-08-04T05:35:52.132Z,99643.09
2022-08-04T05:36:41.620Z,99645.78
2022-08-04T05:37:30.732Z,99641.28
2022-08-04T05:38:22.257Z,99645.78
2022-08-04T05:39:12.893Z,99641.13
2022-08-04T05:40:07.377Z,99636.75
2022-08-04T05:40:58.692Z,99645.44
2022-08-04T05:41:55.352Z,99641.94
2022-08-04T05:42:46.313Z,99639.25
2022-08-04T05:43:34.914Z,99632.72
2022-08-04T05:44:23.960Z,99647.78
2022-08-04T05:45:18.003Z,99641.78
2022-08-04T05:46:05.763Z,99643.44
2022-08-04T05:46:57.115Z,99634.41
2022-08-04T05:47:47.976Z,99640.59
2022-08-04T05:48:37.839Z,99630.72
2022-08-04T05:49:28.863Z,99639.75
2022-08-04T05:50:25.068Z,99636.91
2022-08-04T05:51:16.562Z,99634.41
2022-08-04T05:52:09.479Z,99639.59
2022-08-04T05:53:01.280Z,99641.44
2022-08-04T05:53:49.556Z,99638.06
2022-08-04T05:54:41.114Z,99639.75
2022-08-04T05:55:56.666Z,99633.25
2022-08-04T05:56:38.505Z,99636.09
2022-08-04T05:57:35.157Z,99633.56
2022-08-04T05:58:27.768Z,99636.59
2022-08-04T05:59:19.087Z,99635.56
2022-08-04T06:00:25.134Z,99633.75
2022-08-04T06:01:13.134Z,99634.56
2022-08-04T06:02:03.803Z,99634.06
2022-08-04T06:03:02.263Z,99636.91
2022-08-04T06:03:54.812Z,99637.06
2022-08-04T06:04:43.915Z,99635.91
2022-08-04T06:05:36.274Z,99636.09
2022-08-04T06:06:27.959Z,99637.06
2022-08-04T06:07:21.467Z,99645.94
2022-08-04T06:08:15.672Z,99641.78
2022-08-04T06:09:05.815Z,99642.75
2022-08-04T06:09:56.442Z,99643.59
2022-08-04T06:10:47.693Z,99644.78
2022-08-04T06:12:01.951Z,99640.09
2022-08-04T06:12:42.505Z,99642.75
2022-08-04T06:13:47.508Z,99638.06
2022-08-04T06:14:38.823Z,99633.91
2022-08-04T06:15:29.243Z,99632.22
2022-08-04T06:16:29.105Z,99640.09
2022-08-04T06:19:57.099Z,99633.91
2022-08-04T06:19:57.271Z,99641.13
2022-08-04T06:20:03.461Z,99635.56
2022-08-04T06:20:41.130Z,99640.41
2022-08-04T06:21:38.266Z,99630.56
2022-08-04T06:22:28.072Z,99632.72
2022-08-04T06:23:19.628Z,99633.41
2022-08-04T06:24:16.686Z,99635.06
2022-08-04T06:25:08.342Z,99635.75
2022-08-04T06:26:00.169Z,99641.13
2022-08-04T06:26:52.514Z,99634.06
2022-08-04T06:27:44.430Z,99630.91
2022-08-04T06:28:37.549Z,99629.22
2022-08-04T06:30:32.640Z,99634.91
2022-08-04T06:32:31.762Z,99633.91
2022-08-04T06:32:40.066Z,99634.56
2022-08-04T06:33:31.388Z,99632.56
2022-08-04T06:34:23.981Z,99636.25
2022-08-04T06:35:13.863Z,99638.78
2022-08-04T06:36:03.097Z,99642.94
2022-08-04T06:36:54.644Z,99634.25
2022-08-04T06:37:47.403Z,99638.06
2022-08-04T06:38:38.062Z,99635.06
2022-08-04T06:39:36.942Z,99632.38
2022-08-04T06:40:31.900Z,99633.25
2022-08-04T06:41:23.915Z,99637.25
2022-08-04T06:42:21.646Z,99635.22
2022-08-04T06:43:17.689Z,99636.75
2022-08-04T06:44:08.084Z,99634.72
2022-08-04T06:44:59.060Z,99643.78
2022-08-04T06:45:50.456Z,99636.56
2022-08-04T06:46:40.091Z,99639.41
2022-08-04T06:47:34.391Z,99636.09
2022-08-04T06:48:24.722Z,99634.72
2022-08-04T06:49:22.799Z,99638.25
2022-08-04T06:51:24.724Z,99643.63
2022-08-04T06:51:27.840Z,99637.22
2022-08-04T06:53:09.604Z,99637.41
2022-08-04T06:54:01.940Z,99638.44
2022-08-04T06:54:53.939Z,99639.41
2022-08-04T06:55:41.168Z,99638.59
2022-08-04T06:56:36.961Z,99639.09
2022-08-04T06:57:28.316Z,99644.44
2022-08-04T06:58:19.688Z,99640.25
2022-08-04T06:59:11.162Z,99644.13
2022-08-04T07:00:01.736Z,99639.28
2022-08-04T07:00:56.984Z,99634.25
2022-08-04T07:01:46.925Z,99638.78
2022-08-04T07:02:33.528Z,99638.25
2022-08-04T07:03:21.463Z,99634.22
2022-08-04T07:04:11.711Z,99642.09
2022-08-04T07:05:07.242Z,99637.41
2022-08-04T07:06:05.643Z,99642.59
2022-08-04T07:06:55.765Z,99635.59
2022-08-04T07:07:57.108Z,99638.25
2022-08-04T07:08:48.194Z,99631.88
2022-08-04T07:09:40.928Z,99628.03
2022-08-04T07:10:32.550Z,99628.69
2022-08-04T07:13:07.761Z,99630.72
2022-08-04T07:14:02.432Z,99626.34
2022-08-04T07:14:53.560Z,99631.03
2022-08-04T07:15:49.592Z,99627.69
2022-08-04T07:16:45.662Z,99625.34
2022-08-04T07:17:37.638Z,99628.88
2022-08-04T07:18:29.895Z,99630.03
2022-08-04T07:19:20.495Z,99628.88
2022-08-04T07:20:13.918Z,99624.34
2022-08-04T07:21:06.039Z,99629.69
2022-08-04T07:22:59.743Z,99633.22
2022-08-04T07:23:50.989Z,99630.88
2022-08-04T07:24:49.547Z,99627.38
2022-08-04T07:25:57.152Z,99627.84
2022-08-04T07:26:52.445Z,99620.31
2022-08-04T07:27:48.633Z,99623.00
2022-08-04T07:28:37.705Z,99628.19
2022-08-04T07:29:29.343Z,99627.00
2022-08-04T07:30:24.384Z,99620.16
2022-08-04T07:31:34.254Z,99621.16
2022-08-04T07:33:04.879Z,99618.78
2022-08-04T07:34:16.434Z,99626.84
2022-08-04T07:35:06.132Z,99629.50
2022-08-04T07:36:09.998Z,99627.00
2022-08-04T07:37:00.289Z,99626.16
2022-08-04T07:37:49.903Z,99628.03
2022-08-04T07:38:48.788Z,99626.69
2022-08-04T07:39:47.794Z,99622.66
2022-08-04T07:40:38.122Z,99629.03
2022-08-04T07:41:36.189Z,99624.16
2022-08-04T07:43:06.450Z,99627.69
2022-08-04T07:43:59.238Z,99626.16
2022-08-04T07:44:51.703Z,99629.03
2022-08-04T07:45:40.917Z,99617.78
2022-08-04T07:46:37.124Z,99623.31
2022-08-04T07:47:27.930Z,99617.66
2022-08-04T07:48:18.123Z,99624.69
2022-08-04T07:49:10.304Z,99619.34
2022-08-04T07:50:02.578Z,99627.38
2022-08-04T07:50:56.416Z,99620.16
2022-08-04T07:51:46.247Z,99626.34
2022-08-04T07:52:39.875Z,99627.56
2022-08-04T07:53:52.813Z,99625.69
2022-08-04T07:54:38.702Z,99625.34
2022-08-04T07:55:31.710Z,99626.00
2022-08-04T07:56:28.683Z,99629.00
2022-08-04T07:57:40.382Z,99619.63
2022-08-04T07:58:30.393Z,99624.84
2022-08-04T07:59:21.670Z,99624.97
2022-08-04T08:00:11.378Z,99622.19
2022-08-04T08:01:00.808Z,99618.16
2022-08-04T08:01:54.216Z,99630.53
2022-08-04T08:02:46.334Z,99628.34
2022-08-04T08:03:36.848Z,99628.03
2022-08-04T08:04:27.630Z,99623.66
2022-08-04T08:05:18.236Z,99627.19
2022-08-04T08:06:17.963Z,99622.16
2022-08-04T08:07:24.250Z,99630.03
2022-08-04T08:08:15.401Z,99630.38
2022-08-04T08:09:12.536Z,99620.81
2022-08-04T08:10:05.188Z,99625.00
2022-08-04T08:10:57.133Z,99626.31
2022-08-04T08:12:37.593Z,99625.66
2022-08-04T08:13:03.575Z,99621.66
2022-08-04T08:13:57.717Z,99627.84
2022-08-04T08:14:48.567Z,99617.75
2022-08-04T08:15:38.994Z,99621.28
2022-08-04T08:16:28.408Z,99629.16
2022-08-04T08:17:18.000Z,99630.03
2022-08-04T08:18:11.014Z,99626.47
2022-08-04T08:19:01.889Z,99624.66
2022-08-04T08:19:52.368Z,99630.03
2022-08-04T08:20:45.649Z,99625.50
2022-08-04T08:21:37.475Z,99627.34
2022-08-04T08:22:48.726Z,99625.00
2022-08-04T08:23:41.375Z,99625.66
2022-08-04T08:24:33.556Z,99627.34
2022-08-04T08:25:26.026Z,99630.84
2022-08-04T08:26:15.948Z,99629.16
2022-08-04T08:27:12.335Z,99627.69
2022-08-04T08:28:10.709Z,99625.66
2022-08-04T08:29:08.356Z,99630.03
2022-08-04T08:29:59.300Z,99633.34
2022-08-04T08:30:53.129Z,99632.00
2022-08-04T08:31:57.338Z,99622.50
2022-08-04T08:32:49.652Z,99625.81
2022-08-04T08:33:41.687Z,99624.50
2022-08-04T08:34:40.183Z,99628.50
2022-08-04T08:35:32.250Z,99631.84
2022-08-04T08:36:25.110Z,99632.53
2022-08-04T08:37:08.042Z,99627.66
2022-08-04T08:38:01.997Z,99632.00
2022-08-04T08:38:49.921Z,99625.97
2022-08-04T08:39:51.902Z,99637.03
2022-08-04T08:40:46.313Z,99633.03
2022-08-04T08:41:33.011Z,99632.69
2022-08-04T08:42:38.214Z,99629.69
2022-08-04T08:44:04.956Z,99630.03
2022-08-04T08:44:49.113Z,99625.16
2022-08-04T08:45:56.536Z,99635.38
2022-08-04T08:46:49.021Z,99630.38
2022-08-04T08:48:00.033Z,99633.88
2022-08-04T08:48:59.386Z,99631.16
2022-08-04T08:50:02.948Z,99630.03
2022-08-04T08:50:43.540Z,99628.00
2022-08-04T08:51:37.002Z,99631.69
2022-08-04T08:53:01.503Z,99629.16
2022-08-04T08:53:47.900Z,99634.19
2022-08-04T08:54:54.744Z,99626.97
2022-08-04T08:55:57.486Z,99630.00
2022-08-04T08:56:44.623Z,99630.03
2022-08-04T08:57:25.698Z,99632.69
2022-08-04T08:58:25.353Z,99631.69
2022-08-04T08:59:48.953Z,99635.88
2022-08-04T09:00:44.487Z,99635.38
2022-08-04T09:01:36.114Z,99631.34
2022-08-04T09:02:33.279Z,99625.31
2022-08-04T09:03:16.217Z,99624.66
2022-08-04T09:04:23.860Z,99626.47
2022-08-04T09:05:22.694Z,99627.50
2022-08-04T09:06:10.457Z,99626.31
2022-08-04T09:07:05.228Z,99628.00
2022-08-04T09:08:04.405Z,99624.31
2022-08-04T09:09:00.001Z,99631.69
2022-08-04T09:09:47.039Z,99626.31
2022-08-04T09:10:48.332Z,99626.66
2022-08-04T09:11:35.434Z,99623.63
2022-08-04T09:12:16.603Z,99624.66
2022-08-04T09:12:59.889Z,99625.81
2022-08-04T09:13:51.554Z,99619.47
2022-08-04T09:14:41.154Z,99623.66
2022-08-04T09:15:40.737Z,99621.66
2022-08-04T09:16:31.229Z,99616.75
2022-08-04T09:17:22.454Z,99625.47
2022-08-04T09:18:15.511Z,99616.25
2022-08-04T09:19:03.859Z,99616.44
2022-08-04T09:20:00.568Z,99617.75
2022-08-04T09:20:58.604Z,99618.59
2022-08-04T11:41:47.301Z,99634.44
2022-08-04T11:42:28.148Z,99631.63
2022-08-04T11:43:02.366Z,99633.25
2022-08-04T11:44:02.326Z,99634.13
2022-08-04T11:44:41.429Z,99638.13
2022-08-04T11:45:16.516Z,99629.59
2022-08-04T11:45:52.062Z,99634.13
2022-08-04T11:46:24.747Z,99634.13
2022-08-04T11:46:57.466Z,99633.44
2022-08-04T11:47:29.453Z,99633.94
2022-08-04T11:48:01.578Z,99632.28
2022-08-04T11:48:35.676Z,99635.13
2022-08-04T11:49:07.950Z,99634.31
2022-08-04T11:49:56.766Z,99640.00
2022-08-04T11:50:53.609Z,99641.00
2022-08-04T11:51:25.857Z,99637.97
2022-08-04T11:51:57.316Z,99637.81
2022-08-04T11:52:28.750Z,99633.28
2022-08-04T11:53:00.221Z,99633.94
2022-08-04T11:53:36.789Z,99638.66
2022-08-04T11:54:08.482Z,99638.47
2022-08-04T11:54:39.933Z,99640.66
2022-08-04T11:55:11.856Z,99637.13
2022-08-04T11:56:07.670Z,99635.78
2022-08-04T11:56:38.192Z,99637.66
2022-08-04T11:57:09.904Z,99641.31
2022-08-04T11:57:41.247Z,99640.97
2022-08-04T11:58:12.589Z,99633.94
2022-08-04T11:58:50.228Z,99649.03
2022-08-04T11:59:22.485Z,99639.28
2022-08-04T11:59:54.913Z,99632.13
2022-08-04T12:00:27.867Z,99640.84
2022-08-04T12:01:11.484Z,99648.72
2022-08-04T12:02:01.450Z,99650.72
2022-08-04T12:02:32.978Z,99647.69
2022-08-04T12:03:10.564Z,99643.34
2022-08-04T12:04:04.210Z,99648.72
2022-08-04T12:04:35.978Z,99646.34
2022-08-04T12:05:07.599Z,99651.72
2022-08-04T12:05:44.279Z,99648.69
2022-08-04T12:06:36.309Z,99649.84
2022-08-04T12:07:31.115Z,99649.84
2022-08-04T12:08:38.902Z,99636.63
2022-08-04T12:09:33.563Z,99648.19
2022-08-04T12:10:07.596Z,99646.69
2022-08-04T12:10:45.072Z,99650.41
2022-08-04T12:11:28.367Z,99648.19
2022-08-04T12:12:07.423Z,99650.41
2022-08-04T12:12:50.892Z,99652.38
2022-08-04T12:13:40.961Z,99650.88
2022-08-04T12:14:12.316Z,99664.78
2022-08-04T12:14:58.359Z,99669.47
2022-08-04T12:15:30.699Z,99654.22
2022-08-04T12:16:18.185Z,99657.69
2022-08-04T12:17:02.028Z,99668.25
2022-08-04T12:17:52.474Z,99657.69
2022-08-04T12:18:27.689Z,99659.84
2022-08-04T12:19:01.440Z,99664.41
2022-08-04T12:20:01.345Z,99659.72
2022-08-04T12:20:32.230Z,99661.75
2022-08-04T12:21:23.509Z,99673.47
2022-08-04T12:21:58.570Z,99659.22
2022-08-04T12:22:32.278Z,99662.22
2022-08-04T12:23:03.623Z,99658.06
2022-08-04T12:23:38.979Z,99656.38
2022-08-04T12:24:36.668Z,99664.09
2022-08-04T12:25:08.058Z,99655.69
2022-08-04T12:25:44.734Z,99661.53
2022-08-04T12:26:24.893Z,99665.41
2022-08-04T12:26:57.250Z,99660.72
2022-08-04T12:27:40.159Z,99654.84
2022-08-04T12:28:24.462Z,99661.53
2022-08-04T12:29:13.553Z,99666.09
2022-08-04T12:30:53.989Z,99654.66
2022-08-04T12:31:00.105Z,99661.19
2022-08-04T12:31:36.515Z,99668.75
2022-08-04T12:32:16.980Z,99660.53
2022-08-04T12:33:00.055Z,99659.84
2022-08-04T12:34:03.792Z,99665.38
2022-08-04T12:34:32.123Z,99661.19
2022-08-04T12:35:13.614Z,99657.00
2022-08-04T12:36:11.395Z,99662.06
2022-08-04T12:36:41.622Z,99655.34
2022-08-04T12:37:31.512Z,99655.34
2022-08-04T12:38:03.836Z,99656.53
2022-08-04T12:38:35.308Z,99661.72
2022-08-04T12:39:14.200Z,99665.41
2022-08-04T12:40:27.773Z,99668.94
2022-08-04T12:40:37.370Z,99662.19
2022-08-04T12:41:08.812Z,99661.06
2022-08-04T12:41:43.147Z,99667.56
2022-08-04T12:42:28.141Z,99667.06
2022-08-04T12:43:13.599Z,99666.38
2022-08-04T12:43:45.044Z,99665.69
2022-08-04T12:44:37.542Z,99662.84
2022-08-04T12:45:08.028Z,99663.41
2022-08-04T12:45:58.316Z,99658.84
2022-08-04T12:46:29.757Z,99661.06
2022-08-04T12:47:26.403Z,99663.03
2022-08-04T12:47:53.244Z,99666.44
2022-08-04T12:48:24.674Z,99666.72
2022-08-04T12:48:59.355Z,99671.78
2022-08-04T12:49:31.597Z,99659.38
2022-08-04T12:50:04.168Z,99663.56
2022-08-04T12:50:35.710Z,99662.06
2022-08-04T12:51:08.172Z,99662.06
2022-08-04T12:52:06.635Z,99659.50
2022-08-04T12:53:02.102Z,99661.72
2022-08-04T12:53:51.356Z,99655.34
2022-08-04T12:54:28.372Z,99663.88
2022-08-04T12:55:00.429Z,99664.41
2022-08-04T12:55:33.869Z,99663.41
2022-08-04T12:56:05.523Z,99656.19
2022-08-04T12:56:37.163Z,99664.06
2022-08-04T12:57:08.625Z,99663.88
2022-08-04T12:57:40.395Z,99659.03
2022-08-04T12:58:13.192Z,99664.41
2022-08-04T12:58:45.277Z,99663.88
2022-08-04T12:59:16.645Z,99666.09
2022-08-04T12:59:47.993Z,99667.56
2022-08-04T13:00:33.209Z,99662.06
2022-08-04T13:02:10.545Z,99662.72
2022-08-04T13:02:10.838Z,99667.41
2022-08-04T13:02:43.187Z,99661.72
2022-08-04T13:03:15.796Z,99664.41
2022-08-04T13:03:50.050Z,99660.34